Time;durP1;ratioP1;P1;durP2;ratioP2;P2;SDS_P1;SDS_P2;PMS_P1;PMS_P2;Temp;Humidity;BMP_temperature;BMP_pressure;BME280_temperature;BME280_humidity;BME280_pressure;Samples;Min_cycle;Max_cycle;Signal;HPM_P1;HPM_P2
2023/09/26 00:00:35;;;;;;;2.30;1.60;;;;;;;;;;5036194;28;20049;-69
2023/09/26 00:03:00;;;;;;;4.40;2.27;;;;;;;;;;5036080;28;20037;-69
2023/09/26 00:05:26;;;;;;;3.07;1.80;;;;;;;;;;5035988;28;20040;-69
2023/09/26 00:07:52;;;;;;;3.65;2.10;;;;;;;;;;5037140;28;20290;-68
2023/09/26 00:10:18;;;;;;;3.58;2.10;;;;;;;;;;5036142;28;20029;-68
2023/09/26 00:12:43;;;;;;;4.53;2.03;;;;;;;;;;5045427;28;20075;-69
2023/09/26 00:15:11;;;;;;;3.95;2.08;;;;;;;;;;5050865;28;20021;-68
2023/09/26 00:17:36;;;;;;;5.28;2.40;;;;;;;;;;5043786;28;20031;-68
2023/09/26 00:20:27;;;;;;;3.43;2.00;;;;;;;;;;5054916;28;20392;-68
2023/09/26 00:22:46;;;;;;;6.38;2.25;;;;;;;;;;5054741;28;20297;-68
2023/09/26 00:25:12;;;;;;;5.50;2.03;;;;;;;;;;5055194;28;20064;-69
2023/09/26 00:27:37;;;;;;;3.67;1.93;;;;;;;;;;5053603;28;20064;-69
2023/09/26 00:30:02;;;;;;;2.50;1.90;;;;;;;;;;5054496;28;20286;-69
2023/09/26 00:40:47;;;;;;;;;;;;;;;;;;5016025;28;20144;-68
2023/09/26 00:48:50;;;;;;;3.03;1.90;;;;;;;;;;5192924;23;20065;-68
2023/09/26 00:54:18;;;;;;;6.38;2.45;;;;;;;;;;5015090;28;20234;-68
2023/09/26 00:59:45;;;;;;;3.10;1.80;;;;;;;;;;5015362;28;20044;-68
2023/09/26 01:02:11;;;;;;;5.75;2.67;;;;;;;;;;5014994;28;20465;-68
2023/09/26 01:07:39;;;;;;;4.03;2.40;;;;;;;;;;5015454;28;20384;-68
2023/09/26 01:10:07;;;;;;;4.25;2.00;;;;;;;;;;5015012;28;20022;-68
2023/09/26 01:12:32;;;;;;;7.18;2.13;;;;;;;;;;5015111;28;20512;-68
2023/09/26 01:14:57;;;;;;;11.57;2.80;;;;;;;;;;5015038;28;20050;-68
2023/09/26 01:17:22;;;;;;;5.10;2.33;;;;;;;;;;5014901;28;20255;-68
2023/09/26 01:19:47;;;;;;;3.90;2.17;;;;;;;;;;5014683;28;20034;-68
2023/09/26 01:22:15;;;;;;;7.17;2.00;;;;;;;;;;5014858;28;20030;-68
2023/09/26 01:24:40;;;;;;;3.53;2.30;;;;;;;;;;5014881;28;20024;-68
2023/09/26 01:27:05;;;;;;;4.67;2.27;;;;;;;;;;5013342;28;20110;-68
2023/09/26 01:29:31;;;;;;;5.23;1.97;;;;;;;;;;5014750;28;20334;-68
2023/09/26 01:31:56;;;;;;;4.87;2.20;;;;;;;;;;5014820;28;20381;-68
2023/09/26 01:34:21;;;;;;;3.73;1.83;;;;;;;;;;5015031;28;20024;-68
2023/09/26 01:36:46;;;;;;;3.73;2.03;;;;;;;;;;5014380;28;20339;-68
2023/09/26 01:39:11;;;;;;;3.60;2.37;;;;;;;;;;5014639;28;20030;-68
2023/09/26 01:41:37;;;;;;;3.28;1.92;;;;;;;;;;5014626;28;20077;-68
2023/09/26 01:44:02;;;;;;;3.27;1.93;;;;;;;;;;5014423;28;20058;-68
2023/09/26 01:46:27;;;;;;;3.47;1.98;;;;;;;;;;5014480;28;20059;-68
2023/09/26 01:48:52;;;;;;;3.47;1.70;;;;;;;;;;5014239;28;20119;-68
2023/09/26 01:51:18;;;;;;;2.70;1.60;;;;;;;;;;5014405;28;20022;-68
2023/09/26 01:53:43;;;;;;;2.57;1.77;;;;;;;;;;5014402;28;20251;-68
2023/09/26 01:56:08;;;;;;;3.47;2.05;;;;;;;;;;5014301;28;20091;-68
2023/09/26 01:58:33;;;;;;;3.08;2.15;;;;;;;;;;5014571;28;20105;-68
2023/09/26 02:00:59;;;;;;;3.67;2.10;;;;;;;;;;5014338;28;20473;-68
2023/09/26 02:03:24;;;;;;;3.97;2.53;;;;;;;;;;5014030;28;20034;-68
2023/09/26 02:05:49;;;;;;;6.60;2.20;;;;;;;;;;5014453;28;20722;-68
2023/09/26 02:08:18;;;;;;;3.08;1.85;;;;;;;;;;5014170;28;20022;-68
2023/09/26 02:10:43;;;;;;;2.33;1.48;;;;;;;;;;5014027;28;20445;-68
2023/09/26 02:13:08;;;;;;;3.60;1.90;;;;;;;;;;5014065;28;20116;-68
2023/09/26 02:15:34;;;;;;;2.25;1.73;;;;;;;;;;5014023;28;20293;-68
2023/09/26 02:18:00;;;;;;;2.38;1.83;;;;;;;;;;5013754;28;20026;-68
2023/09/26 02:20:25;;;;;;;4.63;2.00;;;;;;;;;;5013587;28;20072;-68
2023/09/26 02:22:51;;;;;;;2.73;2.07;;;;;;;;;;5013925;28;20018;-68
2023/09/26 02:25:19;;;;;;;2.83;1.73;;;;;;;;;;5013880;28;20018;-68
2023/09/26 02:27:44;;;;;;;3.53;1.73;;;;;;;;;;5013640;28;20152;-68
2023/09/26 02:30:10;;;;;;;3.50;1.75;;;;;;;;;;5013731;28;20105;-68
2023/09/26 02:32:35;;;;;;;3.80;1.88;;;;;;;;;;5014098;28;20022;-68
2023/09/26 02:35:05;;;;;;;2.50;1.70;;;;;;;;;;5013782;28;20014;-68
2023/09/26 02:37:30;;;;;;;3.03;1.98;;;;;;;;;;5013718;28;20025;-68
2023/09/26 02:39:55;;;;;;;3.50;1.95;;;;;;;;;;5013761;28;20388;-68
2023/09/26 02:42:21;;;;;;;4.30;2.20;;;;;;;;;;5013681;28;20064;-68
2023/09/26 02:44:46;;;;;;;2.67;1.63;;;;;;;;;;5013621;28;20022;-68
2023/09/26 02:47:11;;;;;;;3.97;2.10;;;;;;;;;;5013205;28;20030;-68
2023/09/26 02:49:37;;;;;;;3.17;1.83;;;;;;;;;;5013519;28;20026;-68
2023/09/26 02:52:02;;;;;;;3.15;1.80;;;;;;;;;;5013550;28;20243;-68
2023/09/26 02:54:28;;;;;;;2.88;1.80;;;;;;;;;;5013132;28;20022;-68
2023/09/26 02:56:53;;;;;;;3.50;1.83;;;;;;;;;;5013737;28;20018;-68
2023/09/26 02:59:18;;;;;;;2.97;2.10;;;;;;;;;;5013579;28;20492;-68
2023/09/26 03:01:43;;;;;;;2.15;1.63;;;;;;;;;;5013490;28;20334;-68
2023/09/26 03:04:08;;;;;;;3.17;1.80;;;;;;;;;;5013240;28;20034;-68
2023/09/26 03:06:34;;;;;;;2.87;1.90;;;;;;;;;;5012505;28;20037;-68
2023/09/26 03:08:59;;;;;;;5.43;1.63;;;;;;;;;;5012851;28;20373;-68
2023/09/26 03:11:24;;;;;;;3.40;1.65;;;;;;;;;;5012885;28;20643;-68
2023/09/26 03:13:49;;;;;;;3.13;2.20;;;;;;;;;;5013444;28;20025;-68
2023/09/26 03:16:15;;;;;;;3.17;1.70;;;;;;;;;;5013332;28;20040;-68
2023/09/26 03:18:40;;;;;;;1.38;1.20;;;;;;;;;;5013310;28;20594;-68
2023/09/26 03:21:05;;;;;;;1.92;1.60;;;;;;;;;;5013303;28;20022;-68
2023/09/26 03:23:31;;;;;;;2.00;1.35;;;;;;;;;;5013224;28;20030;-68
2023/09/26 03:25:56;;;;;;;2.47;1.50;;;;;;;;;;5012839;28;20022;-68
2023/09/26 03:28:22;;;;;;;2.53;1.53;;;;;;;;;;5013280;28;20022;-68
2023/09/26 03:30:47;;;;;;;1.70;1.33;;;;;;;;;;5013134;28;20743;-68
2023/09/26 03:33:12;;;;;;;2.30;1.58;;;;;;;;;;5013855;28;20017;-68
2023/09/26 03:35:37;;;;;;;2.70;1.47;;;;;;;;;;5016624;28;20022;-68
2023/09/26 03:38:03;;;;;;;2.25;1.30;;;;;;;;;;5016948;28;20293;-68
2023/09/26 03:40:28;;;;;;;1.88;1.42;;;;;;;;;;5016835;28;20030;-68
2023/09/26 03:42:54;;;;;;;2.80;1.80;;;;;;;;;;5016880;28;20022;-68
2023/09/26 03:45:19;;;;;;;2.22;1.25;;;;;;;;;;5016819;28;20040;-68
2023/09/26 03:47:45;;;;;;;2.15;1.52;;;;;;;;;;5016282;28;20405;-68
2023/09/26 03:50:10;;;;;;;3.03;1.85;;;;;;;;;;5016639;28;20037;-68
2023/09/26 03:52:35;;;;;;;2.58;1.70;;;;;;;;;;5016691;28;20425;-68
2023/09/26 03:55:02;;;;;;;3.23;1.63;;;;;;;;;;5016433;28;20026;-68
2023/09/26 03:57:29;;;;;;;2.30;1.65;;;;;;;;;;5015934;28;20615;-68
2023/09/26 03:59:54;;;;;;;1.95;1.38;;;;;;;;;;5016019;28;20020;-69
2023/09/26 04:02:20;;;;;;;1.40;1.07;;;;;;;;;;5015925;28;20034;-68
2023/09/26 04:04:45;;;;;;;2.53;1.55;;;;;;;;;;5016006;28;20014;-68
2023/09/26 04:07:10;;;;;;;4.50;2.20;;;;;;;;;;5015849;28;20022;-68
2023/09/26 04:09:35;;;;;;;2.87;1.87;;;;;;;;;;5015951;28;20046;-68
2023/09/26 04:12:02;;;;;;;2.22;1.50;;;;;;;;;;5015567;28;20260;-68
2023/09/26 04:14:27;;;;;;;3.00;2.00;;;;;;;;;;5016488;28;20014;-68
2023/09/26 04:16:52;;;;;;;1.83;1.35;;;;;;;;;;5014952;28;20022;-68
2023/09/26 04:19:17;;;;;;;2.97;1.63;;;;;;;;;;5016153;28;20381;-68
2023/09/26 04:21:43;;;;;;;2.00;1.50;;;;;;;;;;5014883;28;20283;-68
2023/09/26 04:24:09;;;;;;;2.45;1.65;;;;;;;;;;5016130;28;20021;-68
2023/09/26 04:26:34;;;;;;;3.60;1.80;;;;;;;;;;5016042;28;20072;-68
2023/09/26 04:28:59;;;;;;;3.22;1.60;;;;;;;;;;5016034;28;20017;-68
2023/09/26 04:31:25;;;;;;;3.47;2.00;;;;;;;;;;5015979;28;20373;-68
2023/09/26 04:33:50;;;;;;;6.83;1.93;;;;;;;;;;5015931;28;20247;-68
2023/09/26 04:36:15;;;;;;;3.95;2.05;;;;;;;;;;5015825;28;20462;-68
2023/09/26 04:38:40;;;;;;;3.65;1.98;;;;;;;;;;5015806;28;20045;-68
2023/09/26 04:41:06;;;;;;;3.27;1.97;;;;;;;;;;5015803;28;20448;-68
2023/09/26 04:43:31;;;;;;;1.90;1.38;;;;;;;;;;5015387;28;20102;-68
2023/09/26 04:45:56;;;;;;;3.63;1.90;;;;;;;;;;5015696;28;20056;-68
2023/09/26 04:48:22;;;;;;;2.75;1.90;;;;;;;;;;5015382;28;20046;-68
2023/09/26 04:50:47;;;;;;;7.63;1.80;;;;;;;;;;5015509;28;20033;-68
2023/09/26 04:53:12;;;;;;;2.45;1.77;;;;;;;;;;5015528;28;20033;-68
2023/09/26 04:55:38;;;;;;;4.43;1.80;;;;;;;;;;5015519;28;20026;-68
2023/09/26 04:58:04;;;;;;;2.58;1.63;;;;;;;;;;5015448;28;20024;-68
2023/09/26 05:00:29;;;;;;;3.25;1.98;;;;;;;;;;5015430;28;20632;-68
2023/09/26 05:02:54;;;;;;;2.70;1.55;;;;;;;;;;5015331;28;20471;-68
2023/09/26 05:05:19;;;;;;;3.47;1.87;;;;;;;;;;5015612;28;20025;-68
2023/09/26 05:07:45;;;;;;;10.17;1.63;;;;;;;;;;5015540;28;20248;-68
2023/09/26 05:10:13;;;;;;;5.05;2.08;;;;;;;;;;5015121;28;20370;-68
2023/09/26 05:12:40;;;;;;;3.42;2.03;;;;;;;;;;5015149;28;20469;-68
2023/09/26 05:15:12;;;;;;;2.72;1.80;;;;;;;;;;5013958;28;20013;-68
2023/09/26 05:17:41;;;;;;;2.42;1.60;;;;;;;;;;5015122;28;20013;-68
2023/09/26 05:20:10;;;;;;;3.15;1.65;;;;;;;;;;5015064;28;20033;-68
2023/09/26 05:22:35;;;;;;;2.78;1.75;;;;;;;;;;5014994;28;20021;-68
2023/09/26 05:25:00;;;;;;;2.70;1.70;;;;;;;;;;5013683;28;20025;-68
2023/09/26 05:27:25;;;;;;;4.47;1.83;;;;;;;;;;5014888;28;20362;-68
2023/09/26 05:29:50;;;;;;;2.17;1.40;;;;;;;;;;5015045;28;20025;-68
2023/09/26 05:32:16;;;;;;;2.73;1.57;;;;;;;;;;5014811;28;20247;-68
2023/09/26 05:34:41;;;;;;;2.63;2.00;;;;;;;;;;5014872;28;20049;-68
2023/09/26 05:37:06;;;;;;;3.97;2.10;;;;;;;;;;5014678;28;20101;-68
2023/09/26 05:39:31;;;;;;;1.77;1.40;;;;;;;;;;5014703;28;20025;-68
2023/09/26 05:41:56;;;;;;;3.63;1.93;;;;;;;;;;5014613;28;20022;-68
2023/09/26 05:44:22;;;;;;;2.53;1.63;;;;;;;;;;5014692;28;20022;-68
2023/09/26 05:46:48;;;;;;;5.97;1.70;;;;;;;;;;5014509;28;20612;-69
2023/09/26 05:49:13;;;;;;;3.63;1.80;;;;;;;;;;5014250;28;20054;-68
2023/09/26 05:51:38;;;;;;;3.40;1.93;;;;;;;;;;5014419;28;20112;-69
2023/09/26 05:54:03;;;;;;;1.83;1.60;;;;;;;;;;5014662;28;20369;-69
2023/09/26 05:56:29;;;;;;;2.53;1.40;;;;;;;;;;5013970;28;20024;-69
2023/09/26 05:58:54;;;;;;;2.13;1.60;;;;;;;;;;5014330;28;20500;-69
2023/09/26 06:01:19;;;;;;;5.90;1.80;;;;;;;;;;5014289;28;20101;-70
2023/09/26 06:03:44;;;;;;;2.60;1.30;;;;;;;;;;5014285;28;20354;-70
2023/09/26 06:06:10;;;;;;;1.55;1.27;;;;;;;;;;5014194;28;20715;-70
2023/09/26 06:08:35;;;;;;;4.35;1.83;;;;;;;;;;5014207;28;20030;-69
2023/09/26 06:11:02;;;;;;;3.03;1.70;;;;;;;;;;5014303;28;20029;-69
2023/09/26 06:13:27;;;;;;;1.52;1.27;;;;;;;;;;5014034;28;20032;-69
2023/09/26 06:15:52;;;;;;;1.77;1.30;;;;;;;;;;5014095;28;20093;-70
2023/09/26 06:18:18;;;;;;;1.70;1.50;;;;;;;;;;5014046;28;20401;-70
2023/09/26 06:20:44;;;;;;;2.37;1.70;;;;;;;;;;5013957;28;20025;-70
2023/09/26 06:23:09;;;;;;;2.28;1.75;;;;;;;;;;5014221;28;20655;-70
2023/09/26 06:25:35;;;;;;;3.92;2.08;;;;;;;;;;5013965;28;20105;-70
2023/09/26 06:28:00;;;;;;;2.33;1.60;;;;;;;;;;5013889;28;20033;-70
2023/09/26 06:30:25;;;;;;;4.07;1.70;;;;;;;;;;5013915;28;20092;-70
2023/09/26 06:32:50;;;;;;;4.50;1.70;;;;;;;;;;5013784;28;20314;-70
2023/09/26 06:35:15;;;;;;;2.93;2.00;;;;;;;;;;5013814;28;20065;-70
2023/09/26 06:37:41;;;;;;;3.83;2.17;;;;;;;;;;5013986;28;20025;-70
2023/09/26 06:40:06;;;;;;;4.10;2.20;;;;;;;;;;5013693;28;20385;-70
2023/09/26 06:42:32;;;;;;;2.45;1.67;;;;;;;;;;5013741;28;20063;-70
2023/09/26 06:45:00;;;;;;;3.42;2.08;;;;;;;;;;5013761;28;20101;-67
2023/09/26 06:47:26;;;;;;;4.32;2.20;;;;;;;;;;5013624;28;20566;-67
2023/09/26 06:49:54;;;;;;;3.25;2.25;;;;;;;;;;5013519;28;20021;-66
2023/09/26 06:52:22;;;;;;;4.97;2.00;;;;;;;;;;5013854;28;20462;-67
2023/09/26 06:54:47;;;;;;;5.70;2.47;;;;;;;;;;5013790;28;20470;-66
2023/09/26 06:57:15;;;;;;;4.20;2.43;;;;;;;;;;5013516;28;20025;-66
2023/09/26 06:59:41;;;;;;;8.55;2.05;;;;;;;;;;5013427;28;20022;-66
2023/09/26 07:02:08;;;;;;;7.50;2.47;;;;;;;;;;5013414;28;20080;-66
2023/09/26 07:04:34;;;;;;;6.65;2.75;;;;;;;;;;5013676;28;20465;-66
2023/09/26 07:07:00;;;;;;;8.48;2.63;;;;;;;;;;5015265;28;20022;-67
2023/09/26 07:09:26;;;;;;;9.85;2.63;;;;;;;;;;5017537;28;20026;-66
2023/09/26 07:11:52;;;;;;;8.13;2.78;;;;;;;;;;5017602;28;20026;-67
2023/09/26 07:14:18;;;;;;;8.85;2.95;;;;;;;;;;5017659;28;20014;-66
2023/09/26 07:16:44;;;;;;;9.57;3.13;;;;;;;;;;5017328;28;20491;-67
2023/09/26 07:19:09;;;;;;;7.32;2.90;;;;;;;;;;5017252;28;20017;-67
2023/09/26 07:21:34;;;;;;;6.83;3.03;;;;;;;;;;5017274;28;20071;-67
2023/09/26 07:23:59;;;;;;;8.07;3.45;;;;;;;;;;5017168;28;20022;-67
2023/09/26 07:26:25;;;;;;;13.20;3.70;;;;;;;;;;5017453;28;20045;-66
2023/09/26 07:28:50;;;;;;;13.05;3.80;;;;;;;;;;5017308;28;20037;-67
2023/09/26 07:31:16;;;;;;;9.90;4.07;;;;;;;;;;5017225;28;20030;-67
2023/09/26 07:33:41;;;;;;;7.50;3.63;;;;;;;;;;5017272;28;20247;-67
2023/09/26 07:36:07;;;;;;;10.60;3.65;;;;;;;;;;5017255;28;20021;-67
2023/09/26 07:38:33;;;;;;;15.80;3.40;;;;;;;;;;5016885;28;20040;-67
2023/09/26 07:40:59;;;;;;;10.70;3.75;;;;;;;;;;5016830;28;20473;-67
2023/09/26 07:43:29;;;;;;;6.30;3.30;;;;;;;;;;5017087;28;20025;-67
2023/09/26 07:45:56;;;;;;;13.57;3.53;;;;;;;;;;5016916;28;20046;-67
2023/09/26 07:48:23;;;;;;;9.50;3.72;;;;;;;;;;5016574;28;20062;-67
2023/09/26 07:50:48;;;;;;;8.55;3.45;;;;;;;;;;5016904;28;20025;-67
2023/09/26 07:53:14;;;;;;;9.20;3.73;;;;;;;;;;5016685;28;20437;-67
2023/09/26 07:55:39;;;;;;;16.27;3.90;;;;;;;;;;5016740;28;20022;-65
2023/09/26 07:58:04;;;;;;;6.68;3.67;;;;;;;;;;5016820;28;20022;-65
2023/09/26 08:00:30;;;;;;;10.82;4.00;;;;;;;;;;5016785;28;20033;-67
2023/09/26 08:02:55;;;;;;;9.63;3.40;;;;;;;;;;5016591;28;20358;-67
2023/09/26 08:05:20;;;;;;;9.60;4.30;;;;;;;;;;5016411;28;20030;-67
2023/09/26 08:07:47;;;;;;;7.57;3.00;;;;;;;;;;5016409;28;20068;-65
2023/09/26 08:10:12;;;;;;;7.63;3.40;;;;;;;;;;5016541;28;20080;-67
2023/09/26 08:12:37;;;;;;;7.17;3.30;;;;;;;;;;5016375;28;20405;-67
2023/09/26 08:15:03;;;;;;;7.97;3.30;;;;;;;;;;5016531;28;20243;-67
2023/09/26 08:17:28;;;;;;;7.63;3.53;;;;;;;;;;5016139;28;20184;-65
2023/09/26 08:19:53;;;;;;;10.90;3.53;;;;;;;;;;5015592;28;20381;-65
2023/09/26 08:22:19;;;;;;;6.77;3.87;;;;;;;;;;5016186;28;20441;-65
2023/09/26 08:24:44;;;;;;;8.73;3.10;;;;;;;;;;5016131;28;20251;-65
2023/09/26 08:27:10;;;;;;;6.68;3.67;;;;;;;;;;5016102;28;20028;-66
2023/09/26 08:29:35;;;;;;;7.47;3.65;;;;;;;;;;5015914;28;20504;-65
2023/09/26 08:32:00;;;;;;;11.43;3.88;;;;;;;;;;5015957;28;20026;-65
2023/09/26 08:34:26;;;;;;;9.30;3.50;;;;;;;;;;5016030;28;20022;-65
2023/09/26 08:36:52;;;;;;;10.73;3.73;;;;;;;;;;5016127;28;20240;-65
2023/09/26 08:39:17;;;;;;;8.43;3.65;;;;;;;;;;5015848;28;20243;-65
2023/09/26 08:41:46;;;;;;;8.83;3.63;;;;;;;;;;5016043;28;20465;-65
2023/09/26 08:44:11;;;;;;;8.93;3.67;;;;;;;;;;5015738;28;20251;-65
2023/09/26 08:46:37;;;;;;;8.63;3.67;;;;;;;;;;5015649;28;20030;-65
2023/09/26 08:49:03;;;;;;;6.43;3.80;;;;;;;;;;5015468;28;20109;-65
2023/09/26 08:51:28;;;;;;;7.05;3.28;;;;;;;;;;5015527;28;20025;-65
2023/09/26 08:53:54;;;;;;;10.10;4.33;;;;;;;;;;5015615;28;20026;-65
2023/09/26 08:56:20;;;;;;;6.25;3.13;;;;;;;;;;5015771;28;20018;-65
2023/09/26 08:58:47;;;;;;;6.53;3.35;;;;;;;;;;5015717;28;20421;-65
2023/09/26 09:01:12;;;;;;;9.50;3.05;;;;;;;;;;5015343;28;20030;-65
2023/09/26 09:03:37;;;;;;;7.03;3.20;;;;;;;;;;5015719;28;20032;-70
2023/09/26 09:06:03;;;;;;;5.57;3.23;;;;;;;;;;5015356;28;20018;-70
2023/09/26 09:08:28;;;;;;;8.17;2.90;;;;;;;;;;5015317;28;20415;-70
2023/09/26 09:10:54;;;;;;;5.70;3.20;;;;;;;;;;5015218;28;20425;-70
2023/09/26 09:13:30;;;;;;;5.28;2.72;;;;;;;;;;5015440;28;20239;-70
2023/09/26 09:16:08;;;;;;;6.05;2.75;;;;;;;;;;5015350;28;20462;-70
2023/09/26 09:18:34;;;;;;;8.93;2.60;;;;;;;;;;5015325;28;20473;-70
2023/09/26 09:20:59;;;;;;;8.73;3.03;;;;;;;;;;5015106;28;20013;-70
2023/09/26 09:23:24;;;;;;;5.07;2.90;;;;;;;;;;5015066;28;20026;-70
2023/09/26 09:25:51;;;;;;;6.43;3.00;;;;;;;;;;5015196;28;20018;-70
2023/09/26 09:28:20;;;;;;;9.13;3.33;;;;;;;;;;5014874;28;20061;-70
2023/09/26 09:30:45;;;;;;;5.53;3.00;;;;;;;;;;5014005;28;20029;-70
2023/09/26 09:33:12;;;;;;;5.77;3.10;;;;;;;;;;5014749;28;20390;-70
2023/09/26 09:35:38;;;;;;;6.90;3.10;;;;;;;;;;5014784;28;20254;-70
2023/09/26 09:38:04;;;;;;;6.80;3.37;;;;;;;;;;5014778;28;20014;-70
2023/09/26 09:40:31;;;;;;;6.07;2.90;;;;;;;;;;5014895;28;20030;-70
2023/09/26 09:42:56;;;;;;;5.30;2.63;;;;;;;;;;5014699;28;20064;-70
2023/09/26 09:45:21;;;;;;;8.90;2.92;;;;;;;;;;5014875;28;20438;-69
2023/09/26 09:47:47;;;;;;;7.38;2.95;;;;;;;;;;5014374;28;20049;-69
2023/09/26 09:50:13;;;;;;;7.07;3.00;;;;;;;;;;5014666;28;20461;-69
2023/09/26 09:52:40;;;;;;;5.00;2.38;;;;;;;;;;5014729;28;20037;-70
2023/09/26 09:55:08;;;;;;;5.78;2.90;;;;;;;;;;5014711;28;20386;-69
2023/09/26 09:57:36;;;;;;;6.25;3.70;;;;;;;;;;5014601;28;20025;-69
2023/09/26 10:00:02;;;;;;;8.23;2.58;;;;;;;;;;5014418;28;20029;-69
2023/09/26 10:02:28;;;;;;;4.63;2.80;;;;;;;;;;5014314;28;20014;-70
2023/09/26 10:04:55;;;;;;;5.57;2.90;;;;;;;;;;5014530;28;20010;-69
2023/09/26 10:07:22;;;;;;;6.25;2.30;;;;;;;;;;5014251;28;20258;-69
2023/09/26 10:09:48;;;;;;;4.97;2.60;;;;;;;;;;5014254;28;20022;-69
2023/09/26 10:12:14;;;;;;;5.70;2.47;;;;;;;;;;5014025;28;20362;-69
2023/09/26 10:14:39;;;;;;;5.38;2.40;;;;;;;;;;5014166;28;20381;-66
2023/09/26 10:17:05;;;;;;;7.43;2.90;;;;;;;;;;5014097;28;20021;-66
2023/09/26 10:19:32;;;;;;;7.70;2.75;;;;;;;;;;5013948;28;20022;-66
2023/09/26 10:22:19;;;;;;;7.68;2.58;;;;;;;;;;5014027;28;20026;-66
2023/09/26 10:24:53;;;;;;;5.28;2.75;;;;;;;;;;5013945;28;20022;-66
2023/09/26 10:27:23;;;;;;;7.70;2.38;;;;;;;;;;5013903;28;20022;-66
2023/09/26 10:29:50;;;;;;;6.20;2.35;;;;;;;;;;5013876;28;20168;-66
2023/09/26 10:32:21;;;;;;;5.32;2.45;;;;;;;;;;5013666;28;20026;-68
2023/09/26 10:34:46;;;;;;;7.22;2.30;;;;;;;;;;5014082;28;20486;-66
2023/09/26 10:37:15;;;;;;;12.93;2.50;;;;;;;;;;5014029;28;20022;-66
2023/09/26 10:39:41;;;;;;;6.20;2.28;;;;;;;;;;5013988;28;20707;-68
2023/09/26 10:42:13;;;;;;;4.07;2.35;;;;;;;;;;5013410;28;20024;-68
2023/09/26 10:44:39;;;;;;;11.43;2.10;;;;;;;;;;5013690;28;20022;-68
2023/09/26 10:47:05;;;;;;;5.35;1.95;;;;;;;;;;5013376;28;20018;-68
2023/09/26 10:49:33;;;;;;;4.80;2.35;;;;;;;;;;5013855;28;20132;-68
2023/09/26 10:52:03;;;;;;;5.60;2.15;;;;;;;;;;5013738;28;20482;-68
2023/09/26 10:54:30;;;;;;;3.92;2.10;;;;;;;;;;5013651;28;20046;-68
2023/09/26 10:56:57;;;;;;;4.72;2.30;;;;;;;;;;5013795;28;20026;-68
2023/09/26 10:59:22;;;;;;;3.10;1.83;;;;;;;;;;5013724;28;20025;-68
2023/09/26 11:01:49;;;;;;;5.27;2.40;;;;;;;;;;5013511;28;20025;-68
2023/09/26 11:04:14;;;;;;;3.42;2.30;;;;;;;;;;5013714;28;20018;-68
2023/09/26 11:06:40;;;;;;;4.53;2.13;;;;;;;;;;5013747;28;20029;-66
2023/09/26 11:09:05;;;;;;;5.78;2.22;;;;;;;;;;5013420;28;20025;-66
2023/09/26 11:11:30;;;;;;;2.97;1.77;;;;;;;;;;5013311;28;20072;-67
2023/09/26 11:13:56;;;;;;;4.43;1.98;;;;;;;;;;5013370;28;20382;-67
2023/09/26 11:16:21;;;;;;;5.47;2.30;;;;;;;;;;5013335;28;20033;-67
2023/09/26 11:18:52;;;;;;;4.25;2.05;;;;;;;;;;5013371;28;20025;-67
2023/09/26 11:21:18;;;;;;;3.58;1.92;;;;;;;;;;5013579;28;20437;-67
2023/09/26 11:23:45;;;;;;;5.20;2.10;;;;;;;;;;5013616;28;20057;-67
2023/09/26 11:26:11;;;;;;;3.88;2.10;;;;;;;;;;5013498;28;20479;-67
2023/09/26 11:28:36;;;;;;;6.75;2.30;;;;;;;;;;5013287;28;20029;-67
2023/09/26 11:31:01;;;;;;;5.47;1.92;;;;;;;;;;5013185;28;20092;-67
2023/09/26 11:33:27;;;;;;;4.65;1.88;;;;;;;;;;5013222;28;20018;-67
2023/09/26 11:35:53;;;;;;;8.27;2.33;;;;;;;;;;5013123;28;20010;-67
2023/09/26 11:38:18;;;;;;;4.82;1.98;;;;;;;;;;5011835;28;20021;-67
2023/09/26 11:40:44;;;;;;;5.33;2.33;;;;;;;;;;5012978;28;20026;-67
2023/09/26 11:43:09;;;;;;;4.95;1.70;;;;;;;;;;5013113;28;20028;-67
2023/09/26 11:45:34;;;;;;;3.30;1.93;;;;;;;;;;5013092;28;20021;-67
2023/09/26 11:48:03;;;;;;;5.40;2.03;;;;;;;;;;5012865;28;20202;-68
2023/09/26 11:50:28;;;;;;;9.70;1.88;;;;;;;;;;5013001;28;20295;-67
2023/09/26 11:53:03;;;;;;;5.13;2.22;;;;;;;;;;5013050;28;20097;-67
2023/09/26 11:55:31;;;;;;;4.50;2.22;;;;;;;;;;5016960;28;20489;-67
2023/09/26 11:57:57;;;;;;;3.50;2.13;;;;;;;;;;5016769;28;20054;-67
2023/09/26 12:00:23;;;;;;;3.70;1.90;;;;;;;;;;5016822;28;20014;-67
2023/09/26 12:02:51;;;;;;;4.97;2.00;;;;;;;;;;5016551;28;20470;-67
2023/09/26 12:05:20;;;;;;;3.55;2.05;;;;;;;;;;5016543;28;20260;-67
2023/09/26 12:07:47;;;;;;;4.25;1.83;;;;;;;;;;5016535;28;20018;-67
2023/09/26 12:10:13;;;;;;;3.78;2.00;;;;;;;;;;5016736;28;20486;-67
2023/09/26 12:12:38;;;;;;;6.88;2.17;;;;;;;;;;5016626;28;20022;-67
2023/09/26 12:15:15;;;;;;;5.53;2.08;;;;;;;;;;5016270;28;20029;-67
2023/09/26 12:17:40;;;;;;;5.82;2.25;;;;;;;;;;5016334;28;20022;-67
2023/09/26 12:20:09;;;;;;;4.03;2.10;;;;;;;;;;5016255;28;20381;-67
2023/09/26 12:22:34;;;;;;;3.97;2.20;;;;;;;;;;5016181;28;20018;-67
2023/09/26 12:24:59;;;;;;;3.88;2.10;;;;;;;;;;5016168;28;20109;-67
2023/09/26 12:27:25;;;;;;;4.03;2.17;;;;;;;;;;5016219;28;20116;-67
2023/09/26 12:29:50;;;;;;;3.25;1.88;;;;;;;;;;5016298;28;20503;-67
2023/09/26 12:32:16;;;;;;;4.47;1.80;;;;;;;;;;5015957;28;20018;-67
2023/09/26 12:34:41;;;;;;;5.10;2.10;;;;;;;;;;5016274;28;20072;-67
2023/09/26 12:37:06;;;;;;;3.73;1.80;;;;;;;;;;5015771;28;20466;-67
2023/09/26 12:39:31;;;;;;;3.87;1.87;;;;;;;;;;5015814;28;20017;-67
2023/09/26 12:41:57;;;;;;;4.00;1.83;;;;;;;;;;5015847;28;20033;-67
2023/09/26 12:44:22;;;;;;;4.93;1.83;;;;;;;;;;5015723;28;20029;-67
2023/09/26 12:46:47;;;;;;;4.90;2.00;;;;;;;;;;5015638;28;20018;-67
2023/09/26 12:49:12;;;;;;;4.47;1.60;;;;;;;;;;5015360;28;20284;-67
2023/09/26 12:51:38;;;;;;;5.20;2.13;;;;;;;;;;5015615;28;20350;-67
2023/09/26 12:54:03;;;;;;;4.30;1.83;;;;;;;;;;5015836;28;20014;-67
2023/09/26 12:59:37;;;;;;;4.57;1.95;;;;;;;;;;5014458;28;20052;-67
2023/09/26 13:05:05;;;;;;;2.75;1.77;;;;;;;;;;5015393;28;20064;-67
2023/09/26 13:07:30;;;;;;;4.55;2.00;;;;;;;;;;5015409;28;20022;-69
2023/09/26 13:12:58;;;;;;;3.38;1.73;;;;;;;;;;5015217;28;20108;-69
2023/09/26 13:15:24;;;;;;;3.77;1.83;;;;;;;;;;5015101;28;20077;-69
2023/09/26 13:20:51;;;;;;;5.35;1.90;;;;;;;;;;5014983;28;20301;-69
2023/09/26 13:23:17;;;;;;;3.47;1.83;;;;;;;;;;5014963;28;20021;-69
2023/09/26 13:28:45;;;;;;;5.28;1.70;;;;;;;;;;5496770;22;20096;-84
2023/09/26 13:31:10;;;;;;;3.67;1.50;;;;;;;;;;5014898;28;20472;-81
2023/09/26 13:36:39;;;;;;;5.30;1.92;;;;;;;;;;5014778;28;20333;-81
2023/09/26 13:42:07;;;;;;;3.60;1.90;;;;;;;;;;5014676;28;20293;-81
2023/09/26 13:44:33;;;;;;;3.88;1.77;;;;;;;;;;5014561;28;20026;-81
2023/09/26 13:50:01;;;;;;;4.45;1.70;;;;;;;;;;5014741;28;20029;-81
2023/09/26 13:52:26;;;;;;;4.33;2.07;;;;;;;;;;5014465;28;20018;-81
2023/09/26 13:57:54;;;;;;;3.65;1.92;;;;;;;;;;5014607;28;20084;-81
2023/09/26 14:00:20;;;;;;;3.03;1.73;;;;;;;;;;5013075;28;20474;-81
2023/09/26 14:05:48;;;;;;;4.65;1.83;;;;;;;;;;5014355;28;20033;-84
2023/09/26 14:08:14;;;;;;;3.50;1.80;;;;;;;;;;5014185;28;20021;-84
2023/09/26 14:13:42;;;;;;;3.10;1.80;;;;;;;;;;5014191;28;20599;-83
2023/09/26 14:19:10;;;;;;;2.85;1.55;;;;;;;;;;5014100;28;20033;-83
2023/09/26 14:21:35;;;;;;;2.37;1.47;;;;;;;;;;5013984;28;20048;-84
2023/09/26 14:27:03;;;;;;;4.82;1.80;;;;;;;;;;5013929;28;20262;-83
2023/09/26 14:29:31;;;;;;;2.60;1.73;;;;;;;;;;5012255;28;20050;-83
2023/09/26 14:35:00;;;;;;;5.93;1.70;;;;;;;;;;5530733;22;20066;-83
2023/09/26 14:37:25;;;;;;;2.03;1.50;;;;;;;;;;5013707;28;20107;-83
2023/09/26 14:42:53;;;;;;;3.78;2.10;;;;;;;;;;5013918;28;20044;-83
2023/09/26 14:45:18;;;;;;;4.68;2.05;;;;;;;;;;5013690;28;20540;-83
2023/09/26 14:50:47;;;;;;;4.00;1.77;;;;;;;;;;5013755;28;20108;-84
2023/09/26 14:56:18;;;;;;;4.50;1.83;;;;;;;;;;5013561;28;20092;-83
2023/09/26 14:58:44;;;;;;;3.90;1.85;;;;;;;;;;5012764;28;20052;-83
2023/09/26 15:04:12;;;;;;;2.90;1.55;;;;;;;;;;5013380;28;20113;-83
2023/09/26 15:06:37;;;;;;;3.20;1.90;;;;;;;;;;5013694;28;20045;-83
2023/09/26 15:12:05;;;;;;;3.03;1.67;;;;;;;;;;5019438;28;20044;-83
2023/09/26 15:14:30;;;;;;;4.50;2.13;;;;;;;;;;5000579;28;20021;-83
2023/09/26 15:19:59;;;;;;;4.30;1.75;;;;;;;;;;4998447;28;20025;-83
2023/09/26 15:25:27;;;;;;;5.18;2.08;;;;;;;;;;5010555;28;20432;-83
2023/09/26 15:27:52;;;;;;;3.23;1.87;;;;;;;;;;5026439;28;20026;-83
2023/09/26 15:33:20;;;;;;;4.45;2.00;;;;;;;;;;5595110;23;20032;-83
2023/09/26 15:35:45;;;;;;;2.47;1.90;;;;;;;;;;5004768;28;20469;-83
2023/09/26 15:41:19;;;;;;;3.67;1.80;;;;;;;;;;4994559;28;20266;-83
2023/09/26 15:43:45;;;;;;;5.40;2.20;;;;;;;;;;5023709;28;20025;-83
2023/09/26 15:49:13;;;;;;;8.75;2.33;;;;;;;;;;5015781;28;20048;-83
2023/09/26 15:51:38;;;;;;;3.58;2.10;;;;;;;;;;5016881;28;20054;-83
2023/09/26 15:57:07;;;;;;;3.88;1.95;;;;;;;;;;5016247;28;20290;-83
2023/09/26 16:02:35;;;;;;;4.00;2.00;;;;;;;;;;5014873;28;20111;-83
2023/09/26 16:05:01;;;;;;;3.93;1.80;;;;;;;;;;5016076;28;20057;-83
2023/09/26 16:10:28;;;;;;;5.40;1.92;;;;;;;;;;5012275;28;20622;-83
2023/09/26 16:12:56;;;;;;;3.43;1.70;;;;;;;;;;5014695;28;20022;-83
2023/09/26 16:18:24;;;;;;;4.00;2.05;;;;;;;;;;4980558;22;20054;-69
2023/09/26 16:26:20;;;;;;;5.15;2.17;;;;;;;;;;4963261;28;20054;-67
2023/09/26 16:34:19;;;;;;;5.20;2.33;;;;;;;;;;4974870;28;20113;-69